createdAt,value
2023-04-26T00:00:57.052Z,6.80
2023-04-26T00:03:27.713Z,6.80
2023-04-26T00:05:56.817Z,6.70
2023-04-26T00:08:25.501Z,6.70
2023-04-26T00:10:54.133Z,6.60
2023-04-26T00:13:22.648Z,6.60
2023-04-26T00:15:51.220Z,6.60
2023-04-26T00:18:19.852Z,6.60
2023-04-26T00:20:49.888Z,6.60
2023-04-26T00:23:18.504Z,6.50
2023-04-26T00:25:47.124Z,6.50
2023-04-26T00:28:16.022Z,6.50
2023-04-26T00:30:47.937Z,6.50
2023-04-26T00:33:16.614Z,6.60
2023-04-26T00:35:45.137Z,6.60
2023-04-26T00:38:15.085Z,6.60
2023-04-26T00:40:43.554Z,6.70
2023-04-26T00:43:12.739Z,6.80
2023-04-26T00:45:41.673Z,6.80
2023-04-26T00:48:10.338Z,6.90
2023-04-26T00:50:38.940Z,6.80
2023-04-26T00:53:09.014Z,6.80
2023-04-26T00:55:39.022Z,6.80
2023-04-26T00:58:07.685Z,6.80
2023-04-26T01:00:36.292Z,6.80
2023-04-26T01:03:05.664Z,6.80
2023-04-26T01:05:34.343Z,6.80
2023-04-26T01:08:04.926Z,6.70
2023-04-26T01:10:34.435Z,6.60
2023-04-26T01:13:05.678Z,6.50
2023-04-26T01:15:34.690Z,6.40
2023-04-26T01:18:03.605Z,6.40
2023-04-26T01:20:32.436Z,6.30
2023-04-26T01:23:02.316Z,6.20
2023-04-26T01:25:31.154Z,6.20
2023-04-26T01:27:59.646Z,6.10
2023-04-26T01:30:28.372Z,6.00
2023-04-26T01:32:56.971Z,6.00
2023-04-26T01:35:25.562Z,6.00
2023-04-26T01:37:53.995Z,5.90
2023-04-26T01:40:23.872Z,5.90
2023-04-26T01:42:52.483Z,5.90
2023-04-26T01:45:21.182Z,5.80
2023-04-26T01:47:49.609Z,5.80
2023-04-26T01:50:18.412Z,5.70
2023-04-26T01:52:46.890Z,5.70
2023-04-26T01:55:15.460Z,5.60
2023-04-26T01:57:45.391Z,5.60
2023-04-26T02:00:14.466Z,5.60
2023-04-26T02:02:43.080Z,5.80
2023-04-26T02:05:13.112Z,5.80
2023-04-26T02:07:41.641Z,5.70
2023-04-26T02:10:18.428Z,5.70
2023-04-26T02:12:48.352Z,5.70
2023-04-26T02:15:16.982Z,5.80
2023-04-26T02:17:45.719Z,5.90
2023-04-26T02:21:00.143Z,6.10
2023-04-26T02:23:28.812Z,6.20
2023-04-26T02:25:57.322Z,6.30
2023-04-26T02:28:27.364Z,6.30
2023-04-26T02:30:56.925Z,6.40
2023-04-26T02:33:25.534Z,6.50
2023-04-26T02:35:54.084Z,6.50
2023-04-26T02:38:22.638Z,6.50
2023-04-26T02:40:53.754Z,6.60
2023-04-26T02:43:22.261Z,6.70
2023-04-26T02:45:52.175Z,6.70
2023-04-26T02:48:20.609Z,6.70
2023-04-26T02:50:49.164Z,6.80
2023-04-26T02:53:18.131Z,6.80
2023-04-26T02:55:46.613Z,6.80
2023-04-26T02:58:15.162Z,6.70
2023-04-26T03:00:47.918Z,6.80
2023-04-26T03:03:18.157Z,6.70
2023-04-26T03:05:46.870Z,6.80
2023-04-26T03:08:15.623Z,6.80
2023-04-26T03:10:45.605Z,6.80
2023-04-26T03:13:15.275Z,6.70
2023-04-26T03:15:47.137Z,6.80
2023-04-26T03:18:15.611Z,6.70
2023-04-26T03:20:45.540Z,6.70
2023-04-26T03:23:14.041Z,6.60
2023-04-26T03:25:42.563Z,6.60
2023-04-26T03:28:11.103Z,6.50
2023-04-26T03:30:39.833Z,6.40
2023-04-26T03:33:08.356Z,6.30
2023-04-26T03:35:36.986Z,6.20
2023-04-26T03:38:06.918Z,6.10
2023-04-26T03:40:35.462Z,6.00
2023-04-26T03:43:04.200Z,6.00
2023-04-26T03:45:32.811Z,5.90
2023-04-26T03:48:01.447Z,5.90
2023-04-26T03:50:30.010Z,5.90
2023-04-26T03:52:58.535Z,5.90
2023-04-26T03:55:29.574Z,5.80
2023-04-26T03:58:00.869Z,5.80
2023-04-26T04:00:29.773Z,5.80
2023-04-26T04:02:58.414Z,5.70
2023-04-26T04:05:27.669Z,5.70
2023-04-26T04:07:57.309Z,5.70
2023-04-26T04:10:27.343Z,5.70
2023-04-26T04:12:56.027Z,5.70
2023-04-26T04:15:25.199Z,5.70
2023-04-26T04:17:53.684Z,5.60
2023-04-26T04:20:22.828Z,5.60
2023-04-26T04:22:51.619Z,5.60
2023-04-26T04:25:21.341Z,5.60
2023-04-26T04:27:52.088Z,5.60
2023-04-26T04:30:20.642Z,5.80
2023-04-26T04:32:49.209Z,5.90
2023-04-26T04:35:17.914Z,6.00
2023-04-26T04:37:46.440Z,6.20
2023-04-26T04:40:15.177Z,6.40
2023-04-26T04:42:44.700Z,6.50
2023-04-26T04:45:14.954Z,6.70
2023-04-26T04:47:43.540Z,6.70
2023-04-26T04:50:12.361Z,6.80
2023-04-26T04:52:41.050Z,6.90
2023-04-26T04:55:10.229Z,6.90
2023-04-26T04:57:40.705Z,6.90
2023-04-26T05:00:14.718Z,6.80
2023-04-26T05:02:43.453Z,6.80
2023-04-26T05:05:12.582Z,6.60
2023-04-26T05:07:41.213Z,6.60
2023-04-26T05:10:10.565Z,6.60
2023-04-26T05:12:39.032Z,6.60
2023-04-26T05:15:09.387Z,6.60
2023-04-26T05:17:39.332Z,6.60
2023-04-26T05:20:09.413Z,6.60
2023-04-26T05:22:37.942Z,6.70
2023-04-26T05:25:08.421Z,6.70
2023-04-26T05:27:37.761Z,6.70
2023-04-26T05:30:08.173Z,6.70
2023-04-26T05:32:36.726Z,6.80
2023-04-26T05:35:07.447Z,6.80
2023-04-26T05:37:36.286Z,6.80
2023-04-26T05:40:06.568Z,6.90
2023-04-26T05:42:35.037Z,6.90
2023-04-26T05:45:04.347Z,7.00
2023-04-26T05:47:32.988Z,7.10
2023-04-26T05:50:01.613Z,7.10
2023-04-26T05:52:31.775Z,7.20
2023-04-26T05:55:02.439Z,7.30
2023-04-26T05:57:31.272Z,7.40
2023-04-26T05:59:59.973Z,7.50
2023-04-26T06:02:28.821Z,7.60
2023-04-26T06:04:58.050Z,7.60
2023-04-26T06:07:26.859Z,7.60
2023-04-26T06:09:56.901Z,7.60
2023-04-26T06:12:25.661Z,7.60
2023-04-26T06:14:54.241Z,7.60
2023-04-26T06:17:22.975Z,7.60
2023-04-26T06:19:51.680Z,7.60
2023-04-26T06:22:20.200Z,7.60
2023-04-26T06:24:48.763Z,7.70
2023-04-26T06:27:18.720Z,7.70
2023-04-26T06:29:47.242Z,7.80
2023-04-26T06:32:15.993Z,8.00
2023-04-26T06:34:45.737Z,8.20
2023-04-26T06:37:14.253Z,8.30
2023-04-26T06:39:42.721Z,8.30
2023-04-26T06:42:11.712Z,8.20
2023-04-26T06:44:41.851Z,8.30
2023-04-26T06:47:11.444Z,8.40
2023-04-26T06:49:39.956Z,8.50
2023-04-26T06:52:09.537Z,8.70
2023-04-26T06:54:45.884Z,8.90
2023-04-26T06:57:18.524Z,9.00
2023-04-26T06:59:48.581Z,9.20
2023-04-26T07:02:17.144Z,9.40
2023-04-26T07:04:45.958Z,9.60
2023-04-26T07:07:15.687Z,9.70
2023-04-26T07:09:44.142Z,9.70
2023-04-26T07:12:13.311Z,9.60
2023-04-26T07:14:43.529Z,9.50
2023-04-26T07:17:13.430Z,9.50
2023-04-26T07:19:41.881Z,9.50
2023-04-26T07:22:10.706Z,9.50
2023-04-26T07:24:39.203Z,9.70
2023-04-26T07:27:07.857Z,9.90
2023-04-26T07:29:36.310Z,10.10
2023-04-26T07:32:05.111Z,10.10
2023-04-26T07:34:35.042Z,10.20
2023-04-26T07:37:03.797Z,10.30
2023-04-26T07:39:32.249Z,10.50
2023-04-26T07:42:00.705Z,10.60
2023-04-26T07:44:29.644Z,10.70
2023-04-26T07:46:58.197Z,10.70
2023-04-26T07:49:26.756Z,10.70
2023-04-26T07:51:58.302Z,10.90
2023-04-26T07:54:26.929Z,11.40
2023-04-26T07:56:55.629Z,11.70
2023-04-26T07:59:24.734Z,12.40
2023-04-26T08:01:53.362Z,13.10
2023-04-26T08:04:34.567Z,13.40
2023-04-26T08:07:04.755Z,13.80
2023-04-26T08:09:33.294Z,14.80
2023-04-26T08:12:01.896Z,14.40
2023-04-26T08:14:31.079Z,13.50
2023-04-26T08:16:59.641Z,12.70
2023-04-26T08:19:31.052Z,12.10
2023-04-26T08:21:59.709Z,13.00
2023-04-26T08:24:29.733Z,15.30
2023-04-26T08:26:59.135Z,17.60
2023-04-26T08:29:29.303Z,18.70
2023-04-26T08:31:57.882Z,19.80
2023-04-26T08:34:27.788Z,20.60
2023-04-26T08:36:56.430Z,21.70
2023-04-26T08:39:25.115Z,22.30
2023-04-26T08:41:56.678Z,21.90
2023-04-26T08:44:26.898Z,22.40
2023-04-26T08:47:03.042Z,21.50
2023-04-26T08:49:41.063Z,19.40
2023-04-26T08:52:12.002Z,17.50
2023-04-26T08:54:41.975Z,16.20
2023-04-26T08:57:11.877Z,15.30
2023-04-26T08:59:41.149Z,14.60
2023-04-26T09:02:12.120Z,14.10
2023-04-26T09:04:41.596Z,13.70
2023-04-26T09:07:11.413Z,14.40
2023-04-26T09:09:44.224Z,15.50
2023-04-26T09:12:14.215Z,17.80
2023-04-26T09:14:42.772Z,19.90
2023-04-26T09:17:26.825Z,21.50
2023-04-26T09:19:55.682Z,22.70
2023-04-26T09:22:31.968Z,23.60
2023-04-26T09:25:01.307Z,24.60
2023-04-26T09:27:39.452Z,25.70
2023-04-26T09:30:11.619Z,26.20
2023-04-26T09:32:52.384Z,26.40
2023-04-26T09:35:27.514Z,26.80
2023-04-26T09:38:03.376Z,27.10
2023-04-26T09:40:35.973Z,26.90
2023-04-26T09:43:07.278Z,26.90
2023-04-26T09:45:46.045Z,26.40
2023-04-26T09:48:16.986Z,26.10
2023-04-26T09:50:46.835Z,26.70
2023-04-26T09:53:28.240Z,26.80
2023-04-26T09:55:57.373Z,26.70
2023-04-26T09:58:27.308Z,26.70
2023-04-26T10:00:56.568Z,26.50
2023-04-26T10:03:25.667Z,27.00
2023-04-26T10:05:55.252Z,27.60
2023-04-26T10:08:23.818Z,28.20
2023-04-26T10:10:52.748Z,28.10
2023-04-26T10:13:21.517Z,27.00
2023-04-26T10:15:52.396Z,25.50
2023-04-26T10:18:20.925Z,24.80
2023-04-26T10:20:54.421Z,25.90
2023-04-26T10:23:25.868Z,27.40
2023-04-26T10:25:54.689Z,26.80
2023-04-26T10:29:02.650Z,25.50
2023-04-26T10:32:05.488Z,23.30
2023-04-26T10:34:37.461Z,21.40
2023-04-26T10:37:10.561Z,19.90
2023-04-26T10:39:39.651Z,20.20
2023-04-26T10:42:25.861Z,23.00
2023-04-26T10:44:55.760Z,23.20
2023-04-26T10:47:30.902Z,22.50
2023-04-26T10:50:11.820Z,21.70
2023-04-26T10:53:04.554Z,21.10
2023-04-26T10:55:43.082Z,19.80
2023-04-26T10:58:30.246Z,18.30
2023-04-26T11:01:11.714Z,19.20
2023-04-26T11:03:42.041Z,21.20
2023-04-26T11:06:14.051Z,23.10
2023-04-26T11:08:43.365Z,23.10
2023-04-26T11:11:13.759Z,22.00
2023-04-26T11:13:43.893Z,20.70
2023-04-26T11:16:13.792Z,21.60
2023-04-26T11:18:43.594Z,23.70
2023-04-26T11:21:17.925Z,25.70
2023-04-26T11:23:56.392Z,26.40
2023-04-26T11:26:25.959Z,26.00
2023-04-26T11:28:54.819Z,25.00
2023-04-26T11:31:23.848Z,25.80
2023-04-26T11:33:52.383Z,27.40
2023-04-26T11:36:25.146Z,27.60
2023-04-26T11:38:54.525Z,28.00
2023-04-26T11:41:25.352Z,28.70
2023-04-26T11:43:55.193Z,29.30
2023-04-26T11:46:24.522Z,29.50
2023-04-26T11:48:54.321Z,29.80
2023-04-26T11:51:24.919Z,29.80
2023-04-26T11:53:54.799Z,29.10
2023-04-26T11:56:24.035Z,28.90
2023-04-26T11:58:54.556Z,28.00
2023-04-26T12:01:24.993Z,25.70
2023-04-26T12:03:55.191Z,23.80
2023-04-26T12:06:33.322Z,22.80
2023-04-26T12:09:05.940Z,22.40
2023-04-26T12:11:35.349Z,21.50
2023-04-26T12:14:05.250Z,22.70
2023-04-26T12:16:34.524Z,23.80
2023-04-26T12:19:07.532Z,23.20
2023-04-26T12:21:44.872Z,23.10
2023-04-26T12:24:30.196Z,24.10
2023-04-26T12:27:00.411Z,24.10
2023-04-26T12:29:32.899Z,23.50
2023-04-26T12:32:02.557Z,23.50
2023-04-26T12:34:31.508Z,23.80
2023-04-26T12:37:01.497Z,24.90
2023-04-26T12:39:30.156Z,24.10
2023-04-26T12:41:58.565Z,22.80
2023-04-26T12:44:27.497Z,21.50
2023-04-26T12:46:56.084Z,20.50
2023-04-26T12:49:24.662Z,20.50
2023-04-26T12:51:56.136Z,21.00
2023-04-26T12:54:29.695Z,20.70
2023-04-26T12:57:01.142Z,20.40
2023-04-26T12:59:33.690Z,19.70
2023-04-26T13:02:04.116Z,19.10
2023-04-26T13:04:33.088Z,18.90
2023-04-26T13:07:01.841Z,18.80
2023-04-26T13:09:32.098Z,18.20
2023-04-26T13:12:00.873Z,17.70
2023-04-26T13:14:30.394Z,19.10
2023-04-26T13:16:59.974Z,20.90
2023-04-26T13:19:28.827Z,22.40
2023-04-26T13:22:02.500Z,23.30
2023-04-26T13:24:33.022Z,23.30
2023-04-26T13:27:04.635Z,22.80
2023-04-26T13:29:34.416Z,22.70
2023-04-26T13:32:04.831Z,23.60
2023-04-26T13:34:36.002Z,23.50
2023-04-26T13:37:08.746Z,22.80
2023-04-26T13:39:41.911Z,21.90
2023-04-26T13:42:11.826Z,22.30
2023-04-26T13:44:41.281Z,22.30
2023-04-26T13:47:09.824Z,23.20
2023-04-26T13:49:40.301Z,23.20
2023-04-26T13:52:12.291Z,23.30
2023-04-26T13:54:42.724Z,23.90
2023-04-26T13:57:11.948Z,24.30
2023-04-26T13:59:40.892Z,24.80
2023-04-26T14:02:09.684Z,25.40
2023-04-26T14:04:38.480Z,25.60
2023-04-26T14:07:07.555Z,25.80
2023-04-26T14:09:36.073Z,25.70
2023-04-26T14:12:08.372Z,25.60
2023-04-26T14:14:37.713Z,25.80
2023-04-26T14:17:06.464Z,25.60
2023-04-26T14:19:35.144Z,25.00
2023-04-26T14:22:03.839Z,24.00
2023-04-26T14:24:32.443Z,23.90
2023-04-26T14:27:03.344Z,24.00
2023-04-26T14:29:33.435Z,24.00
2023-04-26T14:32:02.392Z,23.70
2023-04-26T14:34:31.280Z,22.40
2023-04-26T14:37:01.850Z,21.50
2023-04-26T14:39:30.452Z,21.40
2023-04-26T14:41:59.068Z,22.00
2023-04-26T14:44:27.839Z,22.50
2023-04-26T14:46:57.860Z,22.70
2023-04-26T14:49:26.494Z,22.30
2023-04-26T14:51:55.115Z,22.20
2023-04-26T14:54:23.851Z,21.60
2023-04-26T14:56:52.857Z,21.10
2023-04-26T14:59:21.768Z,20.80
2023-04-26T15:01:53.380Z,20.20
2023-04-26T15:04:23.968Z,19.60
2023-04-26T15:06:52.824Z,19.00
2023-04-26T15:09:21.805Z,18.70
2023-04-26T15:11:50.353Z,18.60
2023-04-26T15:14:18.928Z,18.50
2023-04-26T15:16:47.477Z,18.30
2023-04-26T15:19:16.885Z,18.40
2023-04-26T15:21:46.921Z,18.90
2023-04-26T15:24:15.753Z,19.10
2023-04-26T15:26:44.683Z,19.10
2023-04-26T15:29:16.083Z,18.90
2023-04-26T15:31:54.832Z,18.50
2023-04-26T15:34:25.254Z,17.80
2023-04-26T15:36:55.306Z,17.10
2023-04-26T15:39:23.856Z,16.60
2023-04-26T15:41:52.278Z,16.50
2023-04-26T15:44:21.253Z,17.10
2023-04-26T15:46:49.794Z,17.40
2023-04-26T15:49:18.344Z,17.40
2023-04-26T15:51:46.881Z,17.60
2023-04-26T15:54:16.806Z,17.10
2023-04-26T15:56:46.575Z,17.00
2023-04-26T15:59:15.145Z,17.00
2023-04-26T16:01:43.771Z,16.80
2023-04-26T16:04:12.820Z,16.60
2023-04-26T16:06:42.294Z,15.90
2023-04-26T16:09:24.712Z,15.30
2023-04-26T16:11:55.564Z,14.60
2023-04-26T16:14:24.105Z,14.20
2023-04-26T16:16:52.673Z,14.00
2023-04-26T16:19:21.206Z,13.90
2023-04-26T16:21:49.729Z,13.80
2023-04-26T16:24:18.444Z,13.90
2023-04-26T16:26:47.681Z,13.90
2023-04-26T16:29:17.858Z,13.90
2023-04-26T16:31:46.428Z,13.60
2023-04-26T16:34:15.005Z,13.40
2023-04-26T16:36:43.528Z,13.10
2023-04-26T16:39:15.565Z,13.00
2023-04-26T16:41:44.674Z,12.90
2023-04-26T16:44:13.156Z,13.00
2023-04-26T16:46:43.269Z,13.00
2023-04-26T16:49:12.084Z,13.00
2023-04-26T16:51:42.250Z,12.90
2023-04-26T16:54:10.723Z,12.70
2023-04-26T16:56:39.293Z,12.60
2023-04-26T16:59:07.784Z,12.50
2023-04-26T17:01:36.369Z,12.50
2023-04-26T17:04:06.916Z,12.20
2023-04-26T17:06:35.573Z,12.00
2023-04-26T17:09:04.563Z,11.90
2023-04-26T17:11:34.940Z,11.80
2023-04-26T17:14:04.423Z,11.60
2023-04-26T17:16:33.109Z,11.60
2023-04-26T17:19:02.322Z,11.60
2023-04-26T17:21:33.170Z,11.60
2023-04-26T17:24:01.996Z,11.60
2023-04-26T17:26:31.154Z,11.60
2023-04-26T17:29:00.505Z,11.50
2023-04-26T17:31:30.097Z,11.50
2023-04-26T17:33:58.953Z,11.50
2023-04-26T17:36:28.741Z,11.50
2023-04-26T17:38:59.625Z,11.50
2023-04-26T17:41:28.215Z,11.50
2023-04-26T17:43:57.658Z,11.50
2023-04-26T17:46:27.560Z,11.50
2023-04-26T17:48:57.114Z,11.40
2023-04-26T17:51:25.939Z,11.30
2023-04-26T17:53:54.498Z,11.20
2023-04-26T17:56:25.755Z,11.20
2023-04-26T17:58:54.442Z,11.20
2023-04-26T18:01:23.429Z,11.10
2023-04-26T18:03:53.259Z,11.00
2023-04-26T18:06:22.953Z,10.90
2023-04-26T18:08:52.643Z,10.70
2023-04-26T18:11:22.850Z,10.60
2023-04-26T18:13:53.579Z,10.50
2023-04-26T18:16:22.189Z,10.40
2023-04-26T18:18:50.768Z,10.20
2023-04-26T18:21:19.761Z,10.10
2023-04-26T18:23:48.607Z,10.10
2023-04-26T18:26:17.379Z,10.10
2023-04-26T18:28:46.354Z,10.00
2023-04-26T18:31:16.429Z,9.90
2023-04-26T18:33:45.609Z,9.80
2023-04-26T18:36:14.450Z,9.60
2023-04-26T18:38:43.253Z,9.50
2023-04-26T18:41:11.935Z,9.40
2023-04-26T18:43:40.509Z,9.40
2023-04-26T18:46:09.047Z,9.30
2023-04-26T18:48:40.098Z,9.30
2023-04-26T18:51:09.045Z,9.30
2023-04-26T18:53:37.984Z,9.20
2023-04-26T18:56:07.100Z,9.20
2023-04-26T18:58:36.246Z,9.10
2023-04-26T19:01:04.989Z,9.20
2023-04-26T19:03:33.926Z,9.20
2023-04-26T19:06:08.753Z,9.30
2023-04-26T19:08:37.402Z,9.30
2023-04-26T19:11:06.055Z,9.30
2023-04-26T19:13:34.688Z,9.30
2023-04-26T19:16:04.834Z,9.30
2023-04-26T19:18:33.711Z,9.40
2023-04-26T19:21:06.765Z,9.30
2023-04-26T19:23:35.489Z,9.20
2023-04-26T19:26:05.617Z,9.10
2023-04-26T19:28:34.346Z,9.00
2023-04-26T19:31:02.962Z,9.00
2023-04-26T19:33:32.531Z,9.00
2023-04-26T19:36:01.547Z,9.00
2023-04-26T19:38:32.035Z,8.90
2023-04-26T19:41:02.577Z,8.90
2023-04-26T19:43:31.934Z,8.80
2023-04-26T19:46:00.523Z,8.80
2023-04-26T19:48:29.451Z,8.80
2023-04-26T19:50:58.435Z,8.70
2023-04-26T19:53:27.860Z,8.70
2023-04-26T19:55:58.099Z,8.70
2023-04-26T19:58:26.975Z,8.80
2023-04-26T20:00:56.049Z,8.70
2023-04-26T20:03:25.243Z,8.60
2023-04-26T20:05:54.155Z,8.50
2023-04-26T20:08:23.044Z,8.40
2023-04-26T20:10:51.712Z,8.30
2023-04-26T20:13:21.664Z,8.20
2023-04-26T20:15:50.254Z,8.10
2023-04-26T20:18:18.743Z,8.00
2023-04-26T20:20:48.013Z,8.00
2023-04-26T20:23:16.923Z,8.00
2023-04-26T20:25:45.681Z,7.90
2023-04-26T20:28:14.553Z,7.80
2023-04-26T20:30:44.974Z,7.80
2023-04-26T20:33:13.580Z,7.90
2023-04-26T20:35:42.171Z,7.90
2023-04-26T20:38:10.874Z,8.00
2023-04-26T20:40:39.466Z,8.00
2023-04-26T20:43:08.121Z,7.90
2023-04-26T20:45:36.566Z,7.90
2023-04-26T20:48:07.219Z,7.70
2023-04-26T20:50:36.672Z,7.40
2023-04-26T20:53:05.602Z,7.30
2023-04-26T20:55:34.159Z,7.20
2023-04-26T20:58:02.716Z,7.10
2023-04-26T21:00:31.640Z,6.90
2023-04-26T21:03:00.259Z,6.90
2023-04-26T21:05:30.413Z,6.60
2023-04-26T21:07:59.008Z,6.60
2023-04-26T21:10:27.534Z,6.40
2023-04-26T21:12:56.034Z,6.30
2023-04-26T21:15:24.540Z,6.30
2023-04-26T21:17:53.111Z,6.30
2023-04-26T21:20:21.982Z,6.20
2023-04-26T21:22:51.884Z,6.20
2023-04-26T21:25:35.891Z,6.30
2023-04-26T21:28:04.381Z,6.40
2023-04-26T21:30:33.296Z,6.50
2023-04-26T21:33:01.907Z,6.70
2023-04-26T21:35:30.460Z,6.70
2023-04-26T21:38:00.544Z,6.70
2023-04-26T21:40:29.136Z,6.80
2023-04-26T21:43:04.886Z,6.80
2023-04-26T21:45:34.403Z,6.90
2023-04-26T21:48:03.023Z,6.90
2023-04-26T21:50:32.023Z,6.80
2023-04-26T21:53:02.045Z,6.80
2023-04-26T21:55:30.592Z,6.80
2023-04-26T21:57:59.074Z,6.90
2023-04-26T22:00:28.464Z,7.00
2023-04-26T22:02:57.479Z,7.20
2023-04-26T22:05:26.596Z,7.30
2023-04-26T22:07:55.299Z,7.30
2023-04-26T22:10:25.256Z,7.30
2023-04-26T22:12:53.661Z,7.20
2023-04-26T22:15:22.303Z,7.20
2023-04-26T22:17:50.989Z,7.20
2023-04-26T22:20:19.783Z,7.00
2023-04-26T22:22:48.359Z,6.90
2023-04-26T22:25:16.868Z,6.80
2023-04-26T22:27:46.802Z,6.80
2023-04-26T22:30:24.616Z,6.70
2023-04-26T22:32:57.462Z,6.60
2023-04-26T22:35:27.288Z,6.70
2023-04-26T22:37:55.842Z,6.70
2023-04-26T22:40:24.447Z,6.70
2023-04-26T22:42:54.622Z,6.70
2023-04-26T22:45:23.220Z,6.80
2023-04-26T22:47:51.874Z,6.90
2023-04-26T22:50:21.082Z,6.90
2023-04-26T22:52:49.880Z,6.90
2023-04-26T22:55:18.604Z,6.80
2023-04-26T22:57:47.661Z,6.80
2023-04-26T23:00:18.169Z,6.90
2023-04-26T23:02:46.995Z,6.90
2023-04-26T23:05:15.613Z,7.00
2023-04-26T23:07:44.291Z,7.00
2023-04-26T23:10:13.342Z,7.00
2023-04-26T23:12:42.027Z,7.00
2023-04-26T23:15:11.743Z,7.00
2023-04-26T23:17:41.948Z,7.10
2023-04-26T23:20:14.302Z,7.10
2023-04-26T23:22:43.564Z,7.10
2023-04-26T23:25:12.196Z,7.10
2023-04-26T23:27:41.049Z,7.00
2023-04-26T23:30:10.508Z,7.00
2023-04-26T23:32:40.635Z,7.00
2023-04-26T23:35:10.030Z,7.00
2023-04-26T23:37:38.531Z,6.80
2023-04-26T23:40:09.387Z,6.60
2023-04-26T23:42:38.143Z,6.60
2023-04-26T23:45:07.937Z,6.50
2023-04-26T23:47:36.455Z,6.50
2023-04-26T23:50:07.625Z,6.50
2023-04-26T23:52:36.102Z,6.60
2023-04-26T23:55:04.691Z,6.70
2023-04-26T23:57:33.349Z,6.80
